x

Santa Monica Basin - 33nm Wsw Of Santa Monica, Ca (46025) Wave Buoy

2:50 - Sat 1st Oct 2016 All times are PDT. -7 hours from GMT.

  • Sig Wave height 3.9ft
  • Swell Direction
  • Peak Period 17s
  • Average Period 6s
  • Wind
    13mph, 16mph gusts
  • Sea Temp 70°f
  • Air Temp 67°f
  • Sea Pressure 1014.4mb
  • Santa Monica Basin - 33nm Wsw Of Santa Monica, Ca
  • Santa Monica Basin - 33nm Wsw Of Santa Monica, Ca

More Historic Weather Station data

Upgrade to MSW Pro to gain access to the past 30 days of data for over 8000 Wavebouys and Weather Stations around the globe.

Join Pro

Comparision Forecast

View Surf forecast
   
sam. 10/01 2:50 4ft 17s 6s 13 16 mph 1014.4mb 70f 67f
2:40 4ft  -  6s 11 13 mph 1014.5mb 70f 67f
2:30  -   -   -  9 11 mph 1014.6mb 70f 67f
2:20  -   -   -  9 11 mph 1014.5mb 70f 68f
2:10  -   -   -  9 13 mph 1014.6mb 70f 68f
2:00  -   -   -  9 11 mph 1014.6mb 70f 68f
1:50 4.5ft 15s 6s 9
mph
1014.6mb 71f 68f
1:40  -   -   -  9 11 mph 1014.6mb 71f 68f
1:30  -   -   -  11 16 mph 1014.8mb 71f 68f
1:20  -   -   -  13 16 mph 1014.8mb 71f 68f
1:10  -   -   -  13 16 mph 1014.6mb 71f 68f
1:00  -   -   -  11 16 mph 1014.6mb 71f 68f
12:50 4.5ft 15s 6s 13 16 mph 1014.5mb 71f 69f
12:40  -   -   -  13 16 mph 1014.4mb 71f 69f
12:30  -   -   -  13 18 mph 1014.4mb 71f 69f
12:20  -   -   -  13 16 mph 1014.4mb 71f 69f
12:10  -   -   -  13 16 mph 1014.3mb 71f 69f
12:00  -   -   -  13 16 mph 1014.3mb 71f 69f
ven. 09/30 11:50 4ft 14s 6s 13 16 mph 1014.3mb 71f 68f
11:40 4ft  -  6s 9 13 mph 1014.3mb 71f 69f
11:30  -   -   -  7 9 mph 1014.3mb 71f 68f
11:20  -   -   -  4 7 mph 1014.1mb 71f 68f
11:10  -   -   -  4 7 mph 1014.1mb 71f 68f
11:00  -   -   -  4 7 mph 1014.1mb 71f 68f
10:50 4ft 15s 6s 7
mph
1014mb 71f 68f
10:40 4ft  -  6s 7 9 mph 1014mb 71f 68f
10:30  -   -   -  7 9 mph 1014mb 71f 68f
10:20  -   -   -  7 9 mph 1014mb 71f 68f
10:10  -   -   -  9 11 mph 1014mb 71f 68f
10:00  -   -   -  9 11 mph 1013.9mb 71f 68f
9:50 4ft 15s 6s 11 13 mph 1013.8mb 71f 68f
9:40 4ft  -  6s 11
mph
1013.8mb 71f 68f
9:30  -   -   -  9 11 mph 1013.6mb 71f 69f
9:20  -   -   -  7 9 mph 1013.6mb 71f 70f
9:10  -   -   -  11 13 mph 1013.5mb 71f 70f
9:00  -   -   -  11 13 mph 1013.5mb 71f 70f
8:50 4ft 15s 5s 11 13 mph 1013.5mb 71f 70f
8:40 4ft  -  5s 11 13 mph 1013.4mb 71f 70f
8:30  -   -   -  13 16 mph 1013.3mb 71f 69f
8:20  -   -   -  11 13 mph 1013.3mb 71f 69f
8:10  -   -   -  11 13 mph 1013.3mb 71f 69f
8:00  -   -   -  11 13 mph 1013.3mb 71f 69f
7:50 3.5ft 15s 5s 9 11 mph 1013.4mb 71f 69f
7:40 3.5ft  -  5s 9 13 mph 1013.4mb 71f 69f
7:30  -   -   -  9 11 mph 1013.3mb 71f 69f
7:20  -   -   -  11 13 mph 1013.4mb 71f 68f
7:10  -   -   -  11 13 mph 1013.3mb 71f 68f
7:00  -   -   -  9
mph
1013.4mb 71f 68f
6:50 3.5ft 15s 6s 9 11 mph 1013.3mb 71f 68f
6:40 3.5ft  -  6s 9 11 mph 1013.4mb 71f 69f
6:30  -   -   -  9 11 mph 1013.5mb 71f 69f
6:20  -   -   -  9 11 mph 1013.4mb 71f 69f
6:10  -   -   -  11 13 mph 1013.5mb 71f 69f
6:00  -   -   -  11 13 mph 1013.6mb 71f 69f
5:50 3.5ft 15s 6s 13 16 mph 1013.6mb 71f 69f
5:40 3.5ft  -  6s 13 16 mph 1013.9mb 71f 69f
5:30  -   -   -  13 16 mph 1013.9mb 71f 69f
5:20  -   -   -  13 16 mph 1013.9mb 71f 69f
5:10  -   -   -  13 16 mph 1013.9mb 71f 69f
5:00  -   -   -  11 16 mph 1014.5mb 71f 69f
4:50 3.5ft 15s 7s 13 16 mph 1014mb 71f 69f
4:10  -   -   -  13 16 mph 1014.5mb 71f 69f
4:00  -   -   -  11 13 mph 1014.6mb 71f 69f
3:50 3ft 15s 7s 11 13 mph 1014.6mb 71f 70f
3:40 3ft  -  7s 9 11 mph 1014.8mb 71f 70f
3:30  -   -   -  9 11 mph 1014.9mb 71f 70f
3:20  -   -   -  9 11 mph 1014.9mb 71f 70f
3:10  -   -   -  9 11 mph 1014.9mb 71f 70f
3:00  -   -   -  9 11 mph 1015mb 71f 70f
2:50 3.5ft 15s 8s 9 11 mph 1015mb 71f 70f
2:40  -   -   -  9 11 mph 1015mb 71f 69f
2:30  -   -   -  9 11 mph 1015mb 71f 70f
2:20  -   -   -  9 11 mph 1015.3mb 71f 70f
2:10  -   -   -  9
mph
1015.4mb 71f 70f
2:00  -   -   -  7 9 mph 1015.5mb 71f 70f
1:50 3ft 16s 7s 7
mph
1015.5mb 71f 70f
1:40 3ft  -  7s 7
mph
1015.8mb 71f 69f
1:30  -   -   -  4 7 mph 1016mb 71f 70f
1:20  -   -   -  4
mph
1016.3mb 71f 70f
1:10  -   -   -  2 4 mph 1016.3mb 71f 69f
1:00  -   -   -  2 4 mph 1016.5mb 71f 69f
12:50 3ft 15s 7s 4
mph
1016.5mb 71f 69f
12:40 3ft  -  7s 4
mph
1016.5mb 71f 69f
12:30  -   -   -  4 7 mph 1016.8mb 71f 69f
12:20  -   -   -  4 7 mph 1016.8mb 71f 69f
12:10  -   -   -  4 7 mph 1016.8mb 71f 69f
12:00  -   -   -  7
mph
1016.9mb 71f 68f
11:50 3.5ft 15s 7s 7 9 mph 1017mb 71f 68f
11:40 3.5ft  -  7s 7 9 mph 1017mb 71f 68f
11:30  -   -   -  7 9 mph 1017mb 71f 68f
11:20  -   -   -  7
mph
1017.1mb 71f 68f
11:10  -   -   -  7 9 mph 1017.1mb 70f 68f
11:00  -   -   -  7 9 mph 1017.3mb 70f 68f
10:50 3ft 15s 6s 7 9 mph 1017.3mb 70f 68f
10:40 3ft  -  6s 7 9 mph 1017.4mb 70f 68f
10:30  -   -   -  7
mph
1017.5mb 70f 68f
10:20  -   -   -  7 9 mph 1017.5mb 70f 68f
10:10  -   -   -  7 9 mph 1017.4mb 70f 67f
10:00  -   -   -  9 11 mph 1017.3mb 70f 67f
9:50 3.5ft 15s 7s 9 11 mph 1017.1mb 70f 67f
9:40 3.5ft  -  7s 9 11 mph 1017mb 70f 67f
9:30  -   -   -  9 11 mph 1017mb 70f 68f
9:20  -   -   -  9 11 mph 1017mb 70f 68f
9:10  -   -   -  9 11 mph 1017mb 70f 68f
9:00  -   -   -  9 11 mph 1017mb 70f 68f
8:50 3.5ft 15s 7s 9
mph
1017mb 70f 68f
8:40 3.5ft  -  7s 9
mph
1017mb 70f 68f
8:30  -   -   -  9
mph
1017mb 70f 68f
8:20  -   -   -  7 9 mph 1016.9mb 70f 68f
8:10  -   -   -  7 9 mph 1016.8mb 70f 68f
8:00  -   -   -  9 11 mph 1016.8mb 70f 68f
7:50 3.5ft 15s 6s 9 11 mph 1016.5mb 70f 68f
7:40  -   -   -  9 11 mph 1016.5mb 70f 67f
7:30  -   -   -  9 11 mph 1016.4mb 70f 67f
7:20  -   -   -  9
mph
1016.5mb 70f 67f
7:10  -   -   -  9 11 mph 1016.4mb 70f 67f
7:00  -   -   -  9 11 mph 1016.4mb 70f 67f
6:50 3ft 16s 6s 9 11 mph 1016.4mb 70f 67f
6:40 3ft  -  6s 9 11 mph 1016.3mb 70f 67f
6:30  -   -   -  9 11 mph 1016.3mb 70f 67f
6:20  -   -   -  9 11 mph 1016.1mb 70f 67f
6:10  -   -   -  9 11 mph 1016.3mb 70f 67f
6:00  -   -   -  9 11 mph 1016.1mb 70f 67f
5:50 3.5ft 16s 7s 7 9 mph 1016mb 70f 67f
5:40 3.5ft  -  7s 7
mph
1016mb 70f 67f
5:30  -   -   -  4 7 mph 1016mb 70f 67f
5:20  -   -   -  4 7 mph 1016mb 70f 67f
5:10  -   -   -  4 7 mph 1016.1mb 70f 67f
5:00  -   -   -  4 7 mph 1016.1mb 70f 67f
4:50 3ft 15s 6s 7
mph
1016.1mb 70f 67f
4:40 3ft  -  6s 7
mph
1016mb - 68f
4:30  -   -   -  7
mph
1016mb 70f 68f
4:20  -   -   -  7
mph
1016.1mb 70f 68f
4:10  -   -   -  7
mph
1016mb 70f 68f
4:00  -   -   -  7
mph
1016mb 70f 68f
3:50 3.5ft 16s 7s 4 7 mph 1016mb 70f 68f
3:40 3.5ft  -  7s 4
mph
1016.1mb 70f 68f
3:30  -   -   -  2 4 mph 1016.3mb - 68f
3:20  -   -   -  2 4 mph 1016.1mb 70f 68f
3:10  -   -   -   -  2 mph 1016.3mb 70f 68f
3:00  -   -   -  2
mph
1016.1mb 70f 68f
2:50 3ft 16s 7s 4
mph
1016.1mb 70f 68f
2:40 3ft  -  7s 4 7 mph 1016.3mb 70f 69f
2:30  -   -   -  4 7 mph 1016.4mb 70f 69f
2:20  -   -   -  7 9 mph 1016.4mb 70f 68f
2:10  -   -   -  7
mph
1016.5mb 70f 68f
2:00  -   -   -  4 7 mph 1016.4mb 70f 68f
1:50 3ft 16s 6s 2 4 mph 1016.3mb 70f 68f
1:40 3ft  -  6s 4 7 mph 1016.4mb 70f 68f
1:30  -   -   -  7 9 mph 1016.3mb 70f 68f
1:20  -   -   -  7 9 mph 1016.4mb 70f 68f
1:10  -   -   -  4 7 mph 1016.4mb 70f 68f
1:00  -   -   -  2 4 mph 1016.4mb 70f 68f
12:50 2.5ft 16s 6s 2 4 mph 1016.5mb 70f 68f
12:40 2.5ft  -  6s 2 4 mph 1016.5mb 70f 68f
12:30  -   -   -  2 4 mph 1016.5mb 70f 68f
12:20  -   -   -  2 4 mph 1016.5mb 70f 68f
12:10  -   -   -  2 4 mph 1016.5mb 70f 68f
12:00  -   -   -  2 7 mph 1016.4mb 70f 68f
jeu. 09/29 11:50 3.5ft 16s 6s 7
mph
1016.5mb 70f 68f
11:40 3.5ft  -  6s 4 7 mph 1016.5mb 70f 68f
11:30  -   -   -  4 7 mph 1016.5mb 70f 68f
11:20  -   -   -  4 7 mph 1016.5mb 70f 68f
11:10  -   -   -  4 7 mph 1016.4mb 70f 69f
11:00  -   -   -  4 7 mph 1016.4mb 70f 69f
10:50 3ft 13s 6s 4 7 mph 1016.3mb 70f 69f
10:40 3ft  -  6s 4 7 mph 1016.3mb 70f 68f
10:30  -   -   -  7
mph
1016.1mb 70f 69f
10:20  -   -   -  7
mph
1016.1mb 70f 69f
10:10  -   -   -  7 9 mph 1016mb 70f 69f
10:00  -   -   -  7 9 mph 1016mb 70f 69f
9:50 3.5ft 16s 6s 7 9 mph 1016mb 70f 69f
9:40 3.5ft  -  6s 7 9 mph 1016.1mb 70f 69f
9:30  -   -   -  9
mph
1016mb 70f 69f
9:20  -   -   -  7 9 mph 1016.1mb 70f 69f
9:10  -   -   -  9
mph
1016mb 70f 69f
9:00  -   -   -  9
mph
1016mb 70f 69f
8:50 3.5ft 16s 6s 7 9 mph 1016mb 70f 69f
8:40  -   -   -  7 9 mph 1015.9mb 70f 69f
8:30  -   -   -  7 11 mph 1015.8mb 70f 69f
8:20  -   -   -  9 11 mph 1015.5mb 70f 69f
8:10  -   -   -  9 11 mph 1015.4mb 70f 70f
8:00  -   -   -  7 9 mph 1015.3mb 70f 70f
7:50 3.5ft 16s 6s 9
mph
1015.3mb 70f 70f
7:40 3.5ft  -  6s 7 9 mph 1015.1mb 70f 69f
7:30  -   -   -  7 9 mph 1015.1mb 70f 70f
7:20  -   -   -  7 9 mph 1015.3mb 70f 70f
7:10  -   -   -  7 9 mph 1015.3mb 70f 70f
7:00  -   -   -  9 11 mph 1015.3mb 71f 70f
6:50 3ft 16s 6s 9 11 mph 1015.3mb 71f 70f
6:40  -   -   -  9 11 mph 1015.3mb 71f 70f
6:30  -   -   -  9 11 mph 1015.1mb 71f 70f
6:20  -   -   -  9 13 mph 1015mb 71f 70f
6:10  -   -   -  11 13 mph 1015mb 71f 70f
6:00  -   -   -  11 13 mph 1015mb 71f 70f
5:50 3ft 14s 6s 9 11 mph 1015.3mb 71f 70f
5:40 3ft  -  6s 11 13 mph 1015.1mb 71f 70f
5:30  -   -   -  11 13 mph 1015mb 71f 71f
5:20  -   -   -  11 13 mph 1015mb 71f 71f
5:10  -   -   -  11 13 mph 1015.1mb 71f 70f
5:00  -   -   -  11 13 mph 1015.3mb 71f 70f
4:50 3ft 16s 6s 11 13 mph 1015.4mb 71f 70f
4:40 3ft  -  6s 13 16 mph 1015.5mb 71f 70f
4:30  -   -   -  11 13 mph 1015.5mb 71f 70f
4:20  -   -   -  9 11 mph 1015.5mb 71f 70f
4:10  -   -   -  11 13 mph 1015.6mb 71f 70f
4:00  -   -   -  11 13 mph 1015.6mb 71f 70f
3:50 3ft 17s 6s 11 13 mph 1015.6mb 71f 70f
3:40  -   -   -  11
mph
1015.9mb 71f 70f
3:30  -   -   -  11 13 mph 1015.8mb 71f 70f
3:20  -   -   -  11 13 mph 1015.9mb 71f 70f
3:10  -   -   -  11 13 mph 1016mb 71f 70f
3:00  -   -   -  11 13 mph 1016mb 71f 70f
2:50 3ft 16s 6s 11 13 mph 1016mb 71f 69f
2:40 3ft  -  6s 13
mph
1016mb 71f 69f
2:30  -   -   -  11 13 mph 1016mb 71f 69f
2:20  -   -   -  11 13 mph 1016.1mb 71f 69f
2:10  -   -   -  11 13 mph 1016.1mb 71f 69f
2:00  -   -   -  11 13 mph 1016.3mb 71f 69f
1:50 3ft 17s 7s 9 11 mph 1016.5mb 71f 69f
1:40 3ft  -  7s 9 11 mph 1016.6mb 71f 69f
1:30  -   -   -  11 13 mph 1016.6mb 71f 69f
1:20  -   -   -  11 13 mph 1016.8mb 71f 69f
1:10  -   -   -  11
mph
1016.9mb 71f 69f
1:00  -   -   -  11 13 mph 1017mb 71f 69f
12:50 2.5ft 14s 6s 11 13 mph 1017mb 71f 70f
12:40 2.5ft  -  6s 11 13 mph 1017mb 71f 70f
12:30  -   -   -  11 13 mph 1017mb 71f 70f
12:20  -   -   -  11 13 mph 1017mb 71f 70f
12:10  -   -   -  11
mph
1017.1mb 71f 70f
12:00  -   -   -  11 13 mph 1017mb 71f 70f
11:50 3ft 14s 8s 11
mph
1017.1mb 71f 70f
11:40 3ft  -  8s 11 13 mph 1017.3mb 71f 70f
11:30  -   -   -  11
mph
1017.1mb 71f 70f
11:20  -   -   -  9 11 mph 1017.3mb 71f 69f
11:10  -   -   -  11
mph
1017.4mb 70f 69f
11:00  -   -   -  9 11 mph 1017.4mb 70f 69f
10:50 3ft 14s 7s 9 11 mph 1017.3mb 70f 69f
10:40  -   -   -  9 11 mph 1017.3mb 70f 69f
10:30  -   -   -  9 11 mph 1017.1mb 70f 69f
10:20  -   -   -  9 11 mph 1017mb 70f 69f
10:10  -   -   -  9 11 mph 1017mb 70f 69f
10:00  -   -   -  9 11 mph 1016.9mb 70f 70f
9:50 3ft 15s 7s 9 11 mph 1016.8mb 70f 69f
9:40  -   -   -  9 11 mph 1016.9mb 70f 69f
9:30  -   -   -  9 11 mph 1016.8mb 70f 69f
9:20  -   -   -  9 11 mph 1016.5mb 70f 69f
9:10  -   -   -  7 9 mph 1016.5mb 70f 69f
9:00  -   -   -  9
mph
1016.4mb 70f 69f
8:50 2.5ft 13s 6s 9 11 mph 1016.3mb 70f 69f
8:40 2.5ft  -  6s 9 11 mph 1016.3mb 70f 69f
8:30  -   -   -  7 9 mph 1016.3mb 70f 69f
8:20  -   -   -  7 9 mph 1016.1mb 70f 69f
8:10  -   -   -  7 9 mph 1016mb 70f 69f
8:00  -   -   -  7 9 mph 1016mb 70f 69f
7:50 3ft 14s 6s 7 9 mph 1015.9mb 70f 69f
7:40 3ft  -  6s 7 9 mph 1015.5mb 70f 69f
7:30  -   -   -  9
mph
1015.5mb 70f 69f
7:20  -   -   -  7 9 mph 1015.4mb 70f 69f
7:10  -   -   -  7 9 mph 1015.3mb 70f 69f
7:00  -   -   -  9
mph
1015.3mb 70f 69f
6:50 2.5ft 13s 6s 9
mph
1015.1mb 70f 69f
6:40 2.5ft  -  6s 9
mph
1015mb 70f 69f
6:30  -   -   -  9
mph
1015mb 70f 69f
6:20  -   -   -  9 11 mph 1014.9mb 70f 69f
6:10  -   -   -  9 11 mph 1014.8mb 70f 69f
6:00  -   -   -  9 11 mph 1014.6mb 70f 69f
5:50 3ft 13s 6s 9 11 mph 1014.6mb 70f 69f
5:40 3ft  -  6s 9 11 mph 1014.5mb 70f 69f
5:30  -   -   -  9
mph
1014.5mb 70f 69f
5:20  -   -   -  9 11 mph 1014.5mb 70f 69f
5:10  -   -   -  9 13 mph 1014.4mb 70f 69f
5:00  -   -   -  9 11 mph 1014.1mb 70f 69f
4:50 2.5ft 14s 6s 9 11 mph 1014.4mb 70f 69f
4:40 2.5ft  -  6s 9 11 mph 1014.3mb 70f 69f
4:30  -   -   -  9 11 mph 1014.3mb 70f 69f
4:20  -   -   -  9 11 mph 1014.1mb 70f 69f
4:10  -   -   -  7 9 mph 1014.1mb 70f 69f
4:00  -   -   -  7 9 mph 1014.1mb 70f 69f
3:50 2.5ft 9s 5s 9 11 mph 1014mb 70f 69f
3:40  -   -   -  9 11 mph 1014mb 70f 69f
3:30  -   -   -  11 13 mph 1013.9mb 70f 69f
3:20  -   -   -  11 13 mph 1013.9mb 70f 69f
3:10  -   -   -  11 16 mph 1013.9mb 70f 69f
3:00  -   -   -  11 16 mph 1013.8mb 70f 69f
2:50 2.5ft 14s 6s 11 13 mph 1013.8mb 70f 69f
2:40  -   -   -  11 13 mph 1013.9mb 70f 69f
2:30  -   -   -  11 13 mph 1013.9mb 70f 69f
2:20  -   -   -  11 13 mph 1013.8mb 70f 69f
2:10  -   -   -  11 13 mph 1013.9mb 70f 69f
2:00  -   -   -  9 13 mph 1013.9mb 70f 69f
1:50 2.5ft 14s 6s 9 11 mph 1013.9mb 70f 69f
1:40  -   -   -  11
mph
1013.8mb 70f 69f
1:30  -   -   -  11 13 mph 1013.8mb 71f 69f
1:20  -   -   -  11 13 mph 1013.6mb 71f 69f
1:10  -   -   -  11 13 mph 1013.6mb 71f 69f
1:00  -   -   -  11 13 mph 1013.8mb 71f 69f
12:50 2.5ft 14s 6s 13 16 mph 1013.8mb 71f 69f
12:40 2.5ft  -  6s 11 13 mph 1013.6mb 71f 69f
12:30  -   -   -  13
mph
1013.5mb 71f 70f
12:20  -   -   -  11 13 mph 1013.5mb 71f 70f
12:10  -   -   -  11
mph
1013.5mb 71f 70f
12:00  -   -   -  11 13 mph 1013.6mb 71f 70f
mer. 09/28 11:50 3ft 14s 8s 13 16 mph 1013.5mb 71f 70f
11:40 3ft  -  8s 11 13 mph 1013.6mb 71f 70f
11:30  -   -   -  11 16 mph 1013.6mb 71f 70f
11:20  -   -   -  11 16 mph 1013.8mb 71f 70f
11:10  -   -   -  11 13 mph 1013.6mb 71f 70f
11:00  -   -   -  13 16 mph 1013.6mb 71f 70f
10:50 2.5ft 15s 8s 11 13 mph 1013.5mb 71f 70f
10:40 2.5ft  -  8s 11 13 mph 1013.6mb 71f 71f
10:30  -   -   -  9 13 mph 1013.5mb 72f 71f
10:20  -   -   -  9
mph
1013.4mb 72f 71f
10:10  -   -   -  9
mph
1013.4mb 72f 71f
10:00  -   -   -  9 11 mph 1013.3mb 72f 71f
9:50 2.5ft 14s 7s 9 11 mph 1013.3mb 72f 71f
9:40 2.5ft  -  7s 9 11 mph 1013.1mb 72f 71f
9:30  -   -   -  9 11 mph 1013.1mb 72f 71f
9:20  -   -   -  7 9 mph 1013.3mb 72f 72f
9:10  -   -   -  7 9 mph 1013.3mb 72f 72f
9:00  -   -   -  7 9 mph 1013.3mb 72f 72f
8:50 3ft 9s 8s 7 9 mph 1013.1mb 72f 72f
8:40 3ft  -  8s 7 9 mph 1013.3mb 72f 72f
8:30  -   -   -  7 9 mph 1013.3mb 72f 72f
8:20  -   -   -  7 9 mph 1013mb 72f 72f
8:10  -   -   -  7 9 mph 1013mb 72f 72f
8:00  -   -   -  7 9 mph 1013mb 72f 72f
7:50 2.5ft 9s 7s 7
mph
1013mb 72f 72f
7:40 2.5ft  -  7s 7
mph
1013mb 73f 72f
7:30  -   -   -  7 9 mph 1013mb 73f 72f
7:20  -   -   -  7 9 mph 1012.8mb 73f 72f
7:10  -   -   -  7 9 mph 1012.6mb 73f 72f
7:00  -   -   -  7
mph
1012.5mb 72f 72f
6:50 3.5ft 15s 8s 4 7 mph 1012.4mb 72f 72f
6:40 3.5ft  -  8s 4 7 mph 1012.4mb 71f 73f
6:30  -   -   -  4 7 mph 1012.3mb 72f 73f
6:20  -   -   -  4 7 mph 1012.4mb 71f 73f
6:10  -   -   -  7
mph
1012.1mb 71f 73f
6:00  -   -   -  4 7 mph 1012.1mb 71f 73f
5:50 3ft 12s 7s 7
mph
1012.1mb 71f 73f
5:40  -   -   -  7
mph
1012mb 71f 74f
5:30  -   -   -  7
mph
1012mb 71f 74f
5:20  -   -   -  7
mph
1012mb 71f 74f
5:10  -   -   -  4 7 mph 1012.1mb 71f 74f
5:00  -   -   -  4
mph
1012mb 71f 74f
4:50 3ft 9s 8s 2 4 mph 1012mb 71f 74f
4:40 3ft  -  8s 2 4 mph 1012.1mb 71f 73f
4:30  -   -   -  2 4 mph 1012.3mb 71f 73f
4:20  -   -   -  2 4 mph 1012.3mb 71f 73f
4:10  -   -   -  4
mph
1012.3mb 71f 73f
4:00  -   -   -  4 7 mph 1012.1mb 71f 73f
3:50 3.5ft 15s 8s 2 4 mph 1012.1mb 71f 73f
3:40 3.5ft  -  8s 2
mph
1012.3mb 71f 73f
3:30  -   -   -  2 4 mph 1012.3mb 71f 73f
3:20  -   -   -  4 7 mph 1012.3mb 71f 73f
3:10  -   -   -  4 7 mph 1012.1mb 71f 73f
3:00  -   -   -  4 7 mph 1012.3mb 71f 73f
2:50 3ft 10s 8s 4 7 mph 1012.1mb 71f 73f
2:40 3ft  -  8s 4 7 mph 1012.1mb - 73f
2:30  -   -   -  4 7 mph 1012.1mb 71f 73f
2:20  -   -   -  4 7 mph 1012.3mb 71f 73f
2:10  -   -   -  7
mph
1012.3mb 71f 73f
2:00  -   -   -  7
mph
1012.3mb 71f 73f
1:50 2.5ft 10s 8s 4 7 mph 1012.5mb 71f 73f
1:40 2.5ft  -  8s 7
mph
1012.5mb 71f 73f
1:30  -   -   -  4 7 mph 1012.8mb 72f 73f
1:20  -   -   -  4 7 mph 1012.9mb 72f 73f
1:10  -   -   -  4 7 mph 1013mb 71f 73f
1:00  -   -   -  4
mph
1013mb 71f 72f
12:50 2.5ft 15s 8s 4
mph
1013mb 71f 72f
12:40 2.5ft  -  8s 4
mph
1013mb 71f 72f
12:30  -   -   -  7
mph
1013mb 71f 72f
12:20  -   -   -  7 9 mph 1013.1mb 71f 72f
12:10  -   -   -  4
mph
1013.3mb 71f 72f
12:00  -   -   -  4
mph
1013.3mb 71f 72f
11:50 2.5ft 15s 8s 4
mph
1013.3mb 71f 72f
11:40 2.5ft  -  8s 2 4 mph 1013.4mb 71f 72f
11:30  -   -   -  2 4 mph 1013.4mb 71f 72f
11:20  -   -   -  2 4 mph 1013.4mb 71f 72f
11:10  -   -   -  2 4 mph 1013.5mb 71f 72f
11:00  -   -   -  4
mph
1013.5mb 71f 72f
10:50 2.5ft 13s 8s 4
mph
1013.5mb 71f 72f
10:40  -   -   -  2 4 mph 1013.5mb 71f 72f
10:30  -   -   -  2 4 mph 1013.5mb 71f 71f
10:20  -   -   -  4 7 mph 1013.5mb 71f 71f
10:10  -   -   -  7
mph
1013.5mb 71f 71f
10:00  -   -   -  7 9 mph 1013.5mb 70f 71f
9:50 2.5ft 13s 8s 4 7 mph 1013.4mb 70f 71f
9:40 2.5ft  -  8s 4 7 mph 1013.3mb 70f 71f
9:30  -   -   -  4 7 mph 1013.3mb 70f 71f
9:20  -   -   -  4 7 mph 1013.1mb 70f 71f
9:10  -   -   -  4 7 mph 1013mb 70f 71f
9:00  -   -   -  4 7 mph 1013mb 70f 71f
8:50 2.5ft 13s 8s 4
mph
1013mb 70f 71f
8:40  -   -   -  4 7 mph 1013mb 70f 71f
8:30  -   -   -  4 7 mph 1012.9mb 70f 71f
8:20  -   -   -  7
mph
1012.8mb 70f 71f
8:10  -   -   -  4 7 mph 1012.6mb 70f 71f
8:00  -   -   -  4 7 mph 1012.6mb 70f 71f
7:50 2.5ft 15s 8s 4 7 mph 1012.5mb 70f 70f
7:40 2.5ft  -  8s 7
mph
1012.4mb 70f 70f
7:30  -   -   -  4 7 mph 1012.4mb 70f 70f
7:20  -   -   -  7 9 mph 1012.1mb 70f 70f
7:10  -   -   -  7 9 mph 1012.1mb 70f 71f
7:00  -   -   -  7 9 mph 1012mb 70f 70f
6:50 2.5ft 14s 8s 7 9 mph 1012mb 70f 70f
6:40 2.5ft  -  8s 7 9 mph 1012mb 70f 70f
6:30  -   -   -  7
mph
1012mb 70f 71f
6:20  -   -   -  7
mph
1011.9mb 70f 71f
6:10  -   -   -  7 9 mph 1011.6mb 70f 71f
6:00  -   -   -  7 9 mph 1011.6mb 70f 71f
5:50 2.5ft 14s 8s 7 9 mph 1011.6mb 70f 71f
5:40  -   -   -  7
mph
1011.5mb 70f 71f
5:30  -   -   -  7
mph
1011.5mb 70f 71f
5:20  -   -   -  7 9 mph 1011.5mb 70f 71f
5:10  -   -   -  7 9 mph 1011.4mb 70f 71f
5:00  -   -   -  7 9 mph 1011.4mb 70f 71f
4:50 2.5ft 14s 9s 7 9 mph 1011.1mb 70f 71f
4:40 2.5ft  -  9s 7
mph
1011.1mb 70f 71f
4:30  -   -   -  7
mph
1011.1mb 70f 71f
4:20  -   -   -  7 9 mph 1011.4mb 70f 71f
4:10  -   -   -  7
mph
1011.4mb 70f 71f
4:00  -   -   -  7
mph
1011.4mb 70f 71f
3:50 2.5ft 15s 9s 7 9 mph 1011.4mb 70f 71f
3:40 2.5ft  -  9s 7 9 mph 1011.1mb 70f 71f
3:30  -   -   -  9 11 mph 1011.4mb 70f 71f
3:20  -   -   -  9 11 mph 1011.4mb 70f 71f
3:10  -   -   -  9
mph
1011.5mb - 71f
3:00  -   -   -  7 9 mph 1011.5mb 70f 71f
2:50 2.5ft 14s 8s 7 9 mph 1011.4mb 70f 71f
2:40 2.5ft  -  8s 7 9 mph 1011.3mb 70f 71f
2:30  -   -   -  7
mph
1011.4mb 70f 71f
2:20  -   -   -  7
mph
1011.4mb 70f 71f
2:10  -   -   -  4 7 mph 1011.4mb 70f 71f
2:00  -   -   -  4 7 mph 1011.5mb 70f 71f
1:50 2.5ft 15s 9s 4 7 mph 1011.4mb 70f 71f
1:40  -   -   -  4 7 mph 1011.4mb 70f 72f
1:30  -   -   -  4 7 mph 1011.4mb 71f 72f
1:20  -   -   -  4 7 mph 1011.3mb 71f 72f
1:10  -   -   -  4 7 mph 1011.4mb 70f 72f
1:00  -   -   -  4 7 mph 1011.4mb 71f 72f
12:50 2.5ft 14s 9s 7
mph
1011.4mb 71f 72f
12:40  -   -   -  4 7 mph 1011.3mb 71f 72f
12:30  -   -   -  4 7 mph 1011.3mb 71f 72f
12:20  -   -   -  4 7 mph 1011.1mb 71f 72f
12:10  -   -   -  4 7 mph 1011.3mb 71f 72f
12:00  -   -   -  4
mph
1011.1mb 71f 72f
mar. 09/27 11:50 2.5ft 14s 8s 4 7 mph 1011.1mb 71f 72f
11:40  -   -   -  4 7 mph 1011.4mb 71f 72f
11:30  -   -   -  4 7 mph 1011.3mb 71f 72f
11:20  -   -   -  4 7 mph 1011.3mb 71f 72f
11:10  -   -   -  7
mph
1011.3mb 70f 72f
11:00  -   -   -  4
mph
1011.4mb 70f 72f
10:50 2.5ft 14s 9s 4 7 mph 1011.3mb 71f 72f
10:40 2.5ft  -  9s 7
mph
1011.1mb 71f 72f
10:30  -   -   -  7
mph
1011mb 71f 73f
10:20  -   -   -  4
mph
1011mb 71f 73f
10:10  -   -   -  4 7 mph 1011mb 71f 73f
10:00  -   -   -  4 7 mph 1011mb 71f 73f
9:50 2.5ft 15s 8s 4
mph
1010.9mb 71f 73f
9:40 2.5ft  -  8s 4 7 mph 1010.8mb 71f 73f
9:30  -   -   -  4
mph
1010.6mb 71f 73f
9:20  -   -   -  4 7 mph 1010.5mb 71f 73f
9:10  -   -   -  4
mph
1010.5mb 71f 73f
9:00  -   -   -  4 7 mph 1010.5mb 71f 73f
8:50 2.5ft 13s 8s 4 7 mph 1010.6mb 71f 73f
8:40 2.5ft  -  8s 4 7 mph 1010.5mb 71f 73f
8:30  -   -   -  4 7 mph 1010.5mb 71f 73f
8:20  -   -   -  4 7 mph 1010.5mb 71f 73f
8:10  -   -   -  7
mph
1010.5mb 71f 73f
8:00  -   -   -  7
mph
1010.4mb 71f 73f
7:50 2.5ft 14s 8s 4 7 mph 1010.3mb 71f 73f
7:40 2.5ft  -  8s 4 7 mph 1010.3mb 71f 73f
7:30  -   -   -  4 7 mph 1010.3mb 71f 73f
7:20  -   -   -  4
mph
1010.1mb 71f 73f
7:10  -   -   -  4
mph
1010mb 71f 73f
7:00  -   -   -  4
mph
1010mb 71f 73f
6:50 2.5ft 15s 9s 2 4 mph 1010mb 71f 73f
6:40 2.5ft  -  9s 2 4 mph 1009.9mb 71f 73f
6:30  -   -   -  2 4 mph 1009.9mb 71f 73f
6:20  -   -   -  2 4 mph 1010mb 71f 73f
6:10  -   -   -  2 4 mph 1010mb 71f 73f
6:00  -   -   -  4 7 mph 1010mb 71f 73f
5:50 2.5ft 15s 8s 4 7 mph 1010mb 71f 73f
5:40  -   -   -  4 7 mph 1010mb - 73f
5:30  -   -   -  4 7 mph 1010mb 71f 73f
5:20  -   -   -  7 9 mph 1010mb 71f 73f
5:10  -   -   -  9 11 mph 1010mb 71f 73f
5:00  -   -   -  7 11 mph 1010.6mb 71f 73f
4:50 2.5ft 15s 8s 4 7 mph 1009.9mb 71f 73f
4:40 2.5ft  -  8s 7
mph
1009.9mb 71f 73f
4:30  -   -   -  7 9 mph 1009.9mb 71f 73f
4:20  -   -   -  4 7 mph 1009.9mb 71f 73f
4:10  -   -   -  4 7 mph 1009.9mb 71f 73f
4:00  -   -   -  4
mph
1009.9mb 71f 73f
3:50 2.5ft 15s 8s 4 7 mph 1009.8mb 71f 74f
3:40 2.5ft  -  8s 4
mph
1009.6mb 71f 74f
3:30  -   -   -  4 7 mph 1009.6mb 71f 74f
3:20  -   -   -  9 11 mph 1009.5mb 71f 74f
3:10  -   -   -  9 11 mph 1009.4mb 71f 74f
3:00  -   -   -  11
mph
1009.3mb 71f 74f
2:50 2.5ft 15s 8s 11 13 mph 1009.4mb 71f 74f
2:40 2.5ft  -  8s 11 13 mph 1009.4mb 71f 74f
2:30  -   -   -  13 16 mph 1009.3mb 71f 75f
2:20  -   -   -  13 16 mph 1009.3mb 71f 75f
2:10  -   -   -  13 16 mph 1009.4mb 71f 75f
2:00  -   -   -  13 16 mph 1009.5mb 71f 75f
1:50 2.5ft 15s 9s 13 16 mph 1009.5mb 71f 75f
1:40  -   -   -  13 16 mph 1009.5mb 71f 75f
1:30  -   -   -  13
mph
1009.8mb 71f 75f
1:20  -   -   -  13 16 mph 1009.9mb 71f 76f
1:10  -   -   -  13 16 mph 1010mb 71f 76f
1:00  -   -   -  11 13 mph 1010.3mb 71f 75f
12:50 2.5ft 15s 8s 11 13 mph 1010.5mb 71f 75f
12:40 2.5ft  -  8s 11 13 mph 1010.5mb 71f 76f
12:30  -   -   -  11 13 mph 1010.5mb 71f 75f
12:20  -   -   -  11 13 mph 1010.5mb 71f 75f
12:10  -   -   -  9 11 mph 1010.5mb 71f 74f
12:00  -   -   -  7 9 mph 1010.5mb 71f 75f
11:50 2.5ft 15s 7s 9 11 mph 1010.5mb 70f 76f
11:40  -   -   -  9 11 mph 1010.5mb 70f 76f
11:30  -   -   -  9 11 mph 1010.5mb 70f 75f
11:20  -   -   -  7 9 mph 1010.5mb 70f 74f
11:10  -   -   -  7 9 mph 1010.5mb 70f 74f
11:00  -   -   -  9 13 mph 1010.5mb 70f 75f
10:50 2.5ft 14s 8s 11 13 mph 1010.6mb 70f 74f
10:40 2.5ft  -  8s 7 13 mph 1010.9mb 70f 74f